Time;durP1;ratioP1;P1;durP2;ratioP2;P2;SDS_P1;SDS_P2;PMS_P1;PMS_P2;Temp;Humidity;BMP_temperature;BMP_pressure;BME280_temperature;BME280_humidity;BME280_pressure;Samples;Min_cycle;Max_cycle;Signal;HPM_P1;HPM_P2
2022/12/10 00:01:21;;;;;;;0.80;0.80;;;;;;;;;;1863960;76;26132;-39
2022/12/10 00:03:49;;;;;;;0.80;0.80;;;;;;;;;;1864740;76;26686;-45
2022/12/10 00:06:17;;;;;;;0.65;0.65;;;;;;;;;;1864740;75;26241;-48
2022/12/10 00:08:45;;;;;;;0.70;0.70;;;;;;;;;;1859794;77;26229;-42
2022/12/10 00:11:13;;;;;;;0.80;0.80;;;;;;;;;;1867691;77;26163;-49
2022/12/10 00:13:40;;;;;;;0.80;0.80;;;;;;;;;;1860829;75;26204;-42
2022/12/10 00:16:09;;;;;;;0.90;0.90;;;;;;;;;;1863802;75;26167;-48
2022/12/10 00:18:37;;;;;;;0.70;0.70;;;;;;;;;;1870425;76;26195;-45
2022/12/10 00:21:08;;;;;;;0.68;0.68;;;;;;;;;;1874388;76;26658;-46
2022/12/10 00:23:35;;;;;;;0.90;0.90;;;;;;;;;;1871827;76;26186;-46
2022/12/10 00:26:04;;;;;;;0.70;0.70;;;;;;;;;;1874690;76;26147;-44
2022/12/10 00:28:32;;;;;;;0.70;0.70;;;;;;;;;;1873400;75;26232;-47
2022/12/10 00:31:03;;;;;;;0.70;0.70;;;;;;;;;;1874429;75;26678;-48
2022/12/10 00:33:31;;;;;;;0.82;0.82;;;;;;;;;;1873021;75;26626;-39
2022/12/10 00:35:59;;;;;;;1.37;0.90;;;;;;;;;;1872716;75;26167;-54
2022/12/10 00:38:27;;;;;;;0.80;0.80;;;;;;;;;;1871381;75;26197;-43
2022/12/10 00:40:54;;;;;;;0.68;0.68;;;;;;;;;;1872700;75;26576;-43
2022/12/10 00:43:21;;;;;;;0.80;0.80;;;;;;;;;;1872467;76;26584;-40
2022/12/10 00:45:48;;;;;;;0.78;0.78;;;;;;;;;;1872563;76;26970;-42
2022/12/10 00:48:16;;;;;;;0.60;0.60;;;;;;;;;;1861268;76;26654;-40
2022/12/10 00:50:44;;;;;;;0.70;0.70;;;;;;;;;;1873605;76;26146;-41
2022/12/10 00:53:11;;;;;;;0.65;0.65;;;;;;;;;;1872847;76;26320;-49
2022/12/10 00:55:38;;;;;;;0.70;0.70;;;;;;;;;;1873064;75;26163;-49
2022/12/10 00:58:05;;;;;;;0.70;0.70;;;;;;;;;;1871727;75;26279;-45
2022/12/10 01:00:33;;;;;;;0.70;0.70;;;;;;;;;;1872640;75;26198;-44
2022/12/10 01:03:00;;;;;;;0.80;0.80;;;;;;;;;;1871315;75;26659;-42
2022/12/10 01:05:27;;;;;;;0.80;0.80;;;;;;;;;;1871479;75;26624;-41
2022/12/10 01:07:55;;;;;;;0.80;0.80;;;;;;;;;;1878442;75;26159;-46
2022/12/10 01:10:22;;;;;;;0.70;0.70;;;;;;;;;;1873438;76;26147;-47
2022/12/10 01:12:49;;;;;;;0.60;0.60;;;;;;;;;;1874539;76;26155;-42
2022/12/10 01:15:16;;;;;;;0.80;0.80;;;;;;;;;;1873755;76;26232;-41
2022/12/10 01:17:44;;;;;;;0.70;0.70;;;;;;;;;;1874188;76;26124;-44
2022/12/10 01:20:12;;;;;;;0.70;0.68;;;;;;;;;;1854121;76;26282;-61
2022/12/10 01:22:39;;;;;;;0.85;0.80;;;;;;;;;;1853963;76;26175;-45
2022/12/10 01:25:07;;;;;;;0.80;0.80;;;;;;;;;;1853544;76;26650;-51
2022/12/10 01:27:34;;;;;;;0.70;0.70;;;;;;;;;;1855200;76;26147;-48
2022/12/10 01:30:01;;;;;;;0.80;0.80;;;;;;;;;;1854488;76;26214;-58
2022/12/10 01:32:28;;;;;;;0.78;0.78;;;;;;;;;;1854195;76;26592;-46
2022/12/10 01:34:56;;;;;;;0.80;0.80;;;;;;;;;;1853884;77;26285;-39
2022/12/10 01:37:23;;;;;;;0.80;0.80;;;;;;;;;;1858447;77;26200;-45
2022/12/10 01:39:50;;;;;;;0.70;0.70;;;;;;;;;;1859846;77;26840;-50
2022/12/10 01:42:18;;;;;;;0.80;0.80;;;;;;;;;;1853344;77;26660;-39
2022/12/10 01:44:47;;;;;;;0.78;0.78;;;;;;;;;;1850721;77;26727;-46
2022/12/10 01:47:14;;;;;;;0.80;0.80;;;;;;;;;;1858477;76;26653;-47
2022/12/10 01:49:41;;;;;;;0.80;0.80;;;;;;;;;;1850113;76;26640;-45
2022/12/10 01:52:10;;;;;;;0.80;0.80;;;;;;;;;;1859376;76;26185;-61
2022/12/10 01:54:39;;;;;;;0.85;0.85;;;;;;;;;;1859295;76;26864;-47
2022/12/10 01:57:07;;;;;;;0.70;0.70;;;;;;;;;;1849297;76;26664;-46
2022/12/10 01:59:36;;;;;;;0.70;0.70;;;;;;;;;;1857582;76;26637;-46
2022/12/10 02:02:07;;;;;;;0.80;0.80;;;;;;;;;;1848606;76;26195;-48
2022/12/10 02:04:39;;;;;;;0.75;0.75;;;;;;;;;;1844892;76;26289;-43
2022/12/10 02:07:10;;;;;;;0.78;0.78;;;;;;;;;;1850977;76;26155;-41
2022/12/10 02:09:51;;;;;;;1.65;0.68;;;;;;;;;;1854512;76;26233;-51
2022/12/10 02:12:26;;;;;;;0.70;0.70;;;;;;;;;;1857492;77;26265;-42
2022/12/10 02:14:55;;;;;;;0.70;0.70;;;;;;;;;;1849490;77;26247;-44
2022/12/10 02:17:24;;;;;;;0.72;0.72;;;;;;;;;;1859940;77;26310;-41
2022/12/10 02:19:52;;;;;;;0.70;0.70;;;;;;;;;;1869635;76;26269;-41
2022/12/10 02:22:21;;;;;;;0.72;0.72;;;;;;;;;;1866019;75;26197;-54
2022/12/10 02:24:49;;;;;;;0.70;0.70;;;;;;;;;;1865952;75;26185;-42
2022/12/10 02:27:21;;;;;;;0.80;0.80;;;;;;;;;;1873090;75;26810;-51
2022/12/10 02:29:49;;;;;;;0.70;0.70;;;;;;;;;;1872982;75;26178;-40
2022/12/10 02:32:18;;;;;;;0.68;0.68;;;;;;;;;;1868019;75;26225;-46
2022/12/10 02:34:47;;;;;;;1.15;0.70;;;;;;;;;;1873127;75;26242;-45
2022/12/10 02:37:28;;;;;;;0.70;0.70;;;;;;;;;;1873145;75;26255;-48
2022/12/10 02:39:56;;;;;;;0.60;0.60;;;;;;;;;;1874142;75;27312;-42
2022/12/10 02:42:24;;;;;;;0.78;0.78;;;;;;;;;;1873746;75;26209;-42
2022/12/10 02:44:52;;;;;;;0.80;0.80;;;;;;;;;;1874943;75;26186;-41
2022/12/10 02:47:20;;;;;;;1.37;0.90;;;;;;;;;;1872239;75;26170;-56
2022/12/10 02:49:48;;;;;;;0.80;0.80;;;;;;;;;;1873372;75;26201;-49
2022/12/10 02:52:17;;;;;;;0.78;0.78;;;;;;;;;;1870773;75;26279;-43
2022/12/10 02:54:45;;;;;;;0.70;0.70;;;;;;;;;;1870931;76;26213;-51
2022/12/10 02:57:14;;;;;;;1.50;0.68;;;;;;;;;;1872891;75;26256;-49
2022/12/10 02:59:43;;;;;;;1.62;0.78;;;;;;;;;;1874046;76;26187;-53
2022/12/10 03:02:12;;;;;;;0.70;0.70;;;;;;;;;;1872678;76;26179;-43
2022/12/10 03:04:56;;;;;;;0.72;0.72;;;;;;;;;;1875021;76;26300;-47
2022/12/10 03:07:25;;;;;;;0.70;0.70;;;;;;;;;;1864628;75;26264;-51
2022/12/10 03:09:54;;;;;;;0.60;0.60;;;;;;;;;;1871079;75;26186;-40
2022/12/10 03:12:22;;;;;;;0.70;0.70;;;;;;;;;;1872933;75;26197;-49
2022/12/10 03:14:50;;;;;;;0.82;0.80;;;;;;;;;;1872328;75;26163;-40
2022/12/10 03:17:18;;;;;;;0.80;0.80;;;;;;;;;;1872083;75;26879;-40
2022/12/10 03:19:46;;;;;;;0.70;0.70;;;;;;;;;;1868997;75;26660;-45
2022/12/10 03:22:15;;;;;;;0.70;0.70;;;;;;;;;;1866814;75;26320;-55
2022/12/10 03:24:43;;;;;;;0.72;0.72;;;;;;;;;;1865780;75;26291;-42
2022/12/10 03:27:12;;;;;;;0.80;0.80;;;;;;;;;;1867567;75;26206;-51
2022/12/10 03:29:43;;;;;;;0.70;0.70;;;;;;;;;;1865477;75;26647;-44
2022/12/10 03:32:11;;;;;;;0.70;0.70;;;;;;;;;;1865774;75;26636;-51
2022/12/10 03:34:38;;;;;;;1.15;0.70;;;;;;;;;;1867474;75;26676;-45
2022/12/10 03:37:06;;;;;;;0.80;0.80;;;;;;;;;;1867143;75;26183;-50
2022/12/10 03:39:34;;;;;;;1.55;0.70;;;;;;;;;;1867443;75;26283;-41
2022/12/10 03:42:01;;;;;;;0.70;0.70;;;;;;;;;;1864725;75;26163;-42
2022/12/10 03:44:30;;;;;;;0.50;0.50;;;;;;;;;;1865411;77;26209;-38
2022/12/10 03:46:57;;;;;;;0.80;0.80;;;;;;;;;;1855596;77;26766;-47
2022/12/10 03:49:24;;;;;;;0.80;0.80;;;;;;;;;;1862098;75;26159;-45
2022/12/10 03:51:52;;;;;;;0.75;0.70;;;;;;;;;;1867566;75;26868;-47
2022/12/10 03:54:19;;;;;;;0.70;0.70;;;;;;;;;;1864032;75;26158;-46
2022/12/10 03:56:47;;;;;;;0.65;0.65;;;;;;;;;;1867786;75;26144;-46
2022/12/10 03:59:14;;;;;;;0.70;0.70;;;;;;;;;;1866588;75;26181;-42
2022/12/10 04:01:41;;;;;;;0.70;0.70;;;;;;;;;;1865762;75;26201;-41
2022/12/10 04:04:09;;;;;;;0.60;0.60;;;;;;;;;;1867245;75;26198;-46
2022/12/10 04:06:38;;;;;;;0.72;0.72;;;;;;;;;;1861347;75;26190;-42
2022/12/10 04:09:05;;;;;;;0.70;0.70;;;;;;;;;;1866701;75;26615;-42
2022/12/10 04:11:32;;;;;;;0.70;0.70;;;;;;;;;;1867244;75;26218;-45
2022/12/10 04:16:44;;;;;;;0.60;0.60;;;;;;;;;;1867035;75;26226;-44
2022/12/10 04:19:13;;;;;;;0.60;0.60;;;;;;;;;;1869652;75;26209;-44
2022/12/10 04:27:14;;;;;;;0.85;0.70;;;;;;;;;;1861072;76;26219;-49
2022/12/10 04:29:42;;;;;;;0.60;0.60;;;;;;;;;;1861149;76;26215;-46
2022/12/10 04:32:09;;;;;;;0.60;0.60;;;;;;;;;;1862109;76;26975;-48
2022/12/10 04:34:36;;;;;;;0.70;0.70;;;;;;;;;;1862239;76;26192;-42
2022/12/10 04:37:04;;;;;;;1.77;0.70;;;;;;;;;;1862648;76;26199;-42
2022/12/10 04:39:32;;;;;;;0.60;0.60;;;;;;;;;;1860733;76;26680;-47
2022/12/10 04:42:00;;;;;;;0.60;0.60;;;;;;;;;;1862006;76;26323;-44
2022/12/10 04:44:28;;;;;;;0.70;0.70;;;;;;;;;;1861735;76;26208;-40
2022/12/10 04:46:55;;;;;;;0.72;0.70;;;;;;;;;;1862173;76;26195;-39
2022/12/10 04:49:23;;;;;;;0.55;0.55;;;;;;;;;;1860624;76;26814;-43
2022/12/10 04:51:50;;;;;;;0.70;0.70;;;;;;;;;;1862649;76;26200;-42
2022/12/10 04:54:17;;;;;;;0.70;0.70;;;;;;;;;;1857410;76;25644;-45
2022/12/10 04:56:45;;;;;;;0.50;0.50;;;;;;;;;;1861657;76;26182;-56
2022/12/10 04:59:12;;;;;;;0.57;0.57;;;;;;;;;;1862073;76;26238;-45
2022/12/10 05:01:40;;;;;;;0.62;0.62;;;;;;;;;;1851491;76;26246;-44
2022/12/10 05:04:08;;;;;;;0.60;0.60;;;;;;;;;;1861692;76;26648;-48
2022/12/10 05:06:36;;;;;;;0.60;0.60;;;;;;;;;;1873806;75;26771;-41
2022/12/10 05:09:04;;;;;;;0.50;0.50;;;;;;;;;;1862001;75;26540;-44
2022/12/10 05:11:32;;;;;;;0.50;0.50;;;;;;;;;;1862602;76;25670;-54
2022/12/10 05:13:59;;;;;;;0.50;0.50;;;;;;;;;;1859155;76;26300;-50
2022/12/10 05:16:27;;;;;;;0.60;0.60;;;;;;;;;;1849080;76;26624;-39
2022/12/10 05:18:55;;;;;;;0.50;0.50;;;;;;;;;;1860273;76;26249;-46
2022/12/10 05:21:23;;;;;;;0.60;0.60;;;;;;;;;;1862279;76;26834;-42
2022/12/10 05:23:51;;;;;;;0.65;0.53;;;;;;;;;;1862721;76;26353;-44
2022/12/10 05:26:20;;;;;;;0.55;0.55;;;;;;;;;;1862218;76;26186;-39
2022/12/10 05:28:49;;;;;;;0.50;0.50;;;;;;;;;;1859448;76;26642;-45
2022/12/10 05:31:18;;;;;;;0.50;0.50;;;;;;;;;;1854485;76;26164;-44
2022/12/10 05:33:45;;;;;;;0.50;0.50;;;;;;;;;;1860458;76;26203;-45
2022/12/10 05:36:14;;;;;;;0.53;0.53;;;;;;;;;;1862750;76;26224;-40
2022/12/10 05:38:41;;;;;;;0.60;0.60;;;;;;;;;;1861321;76;26271;-42
2022/12/10 05:41:10;;;;;;;0.50;0.50;;;;;;;;;;1861938;76;26196;-45
2022/12/10 05:43:37;;;;;;;0.60;0.60;;;;;;;;;;1860009;76;26206;-39
2022/12/10 05:46:06;;;;;;;0.60;0.60;;;;;;;;;;1855722;76;26159;-43
2022/12/10 05:48:34;;;;;;;0.45;0.45;;;;;;;;;;1862561;76;26210;-43
2022/12/10 05:51:05;;;;;;;0.50;0.50;;;;;;;;;;1862373;76;26666;-40
2022/12/10 05:53:32;;;;;;;0.60;0.60;;;;;;;;;;1862486;77;26264;-51
2022/12/10 05:56:01;;;;;;;0.45;0.45;;;;;;;;;;1862790;77;26160;-42
2022/12/10 05:58:29;;;;;;;2.05;0.70;;;;;;;;;;1862798;76;26267;-42
2022/12/10 06:00:57;;;;;;;0.40;0.40;;;;;;;;;;1861928;76;26151;-38
2022/12/10 06:03:24;;;;;;;0.50;0.50;;;;;;;;;;1856167;76;26297;-41
2022/12/10 06:05:51;;;;;;;0.40;0.40;;;;;;;;;;1862243;76;26293;-42
2022/12/10 06:08:19;;;;;;;0.60;0.60;;;;;;;;;;1866323;75;26280;-45
2022/12/10 06:10:46;;;;;;;0.70;0.70;;;;;;;;;;1861120;76;26257;-43
2022/12/10 06:13:13;;;;;;;0.40;0.40;;;;;;;;;;1861611;76;26348;-55
2022/12/10 06:15:41;;;;;;;0.60;0.60;;;;;;;;;;1861652;76;26230;-45
2022/12/10 06:18:09;;;;;;;0.50;0.50;;;;;;;;;;1860747;75;26863;-45
2022/12/10 06:20:38;;;;;;;0.50;0.50;;;;;;;;;;1863747;76;26203;-41
2022/12/10 06:23:05;;;;;;;0.50;0.50;;;;;;;;;;1873430;76;26225;-51
2022/12/10 06:25:33;;;;;;;0.47;0.47;;;;;;;;;;1873250;76;26186;-52
2022/12/10 06:28:00;;;;;;;0.45;0.45;;;;;;;;;;1873969;75;26709;-41
2022/12/10 06:30:27;;;;;;;0.60;0.60;;;;;;;;;;1872500;75;26214;-48
2022/12/10 06:32:55;;;;;;;0.40;0.40;;;;;;;;;;1873751;75;26151;-61
2022/12/10 06:35:22;;;;;;;0.70;0.70;;;;;;;;;;1873072;75;26189;-40
2022/12/10 06:37:50;;;;;;;1.65;0.50;;;;;;;;;;1872203;75;26667;-39
2022/12/10 06:40:17;;;;;;;0.50;0.50;;;;;;;;;;1873445;75;26151;-43
2022/12/10 06:42:45;;;;;;;0.70;0.53;;;;;;;;;;1872821;75;26705;-41
2022/12/10 06:45:12;;;;;;;1.85;0.62;;;;;;;;;;1872882;75;26234;-47
2022/12/10 06:47:39;;;;;;;1.00;0.50;;;;;;;;;;1873531;75;26210;-42
2022/12/10 06:50:06;;;;;;;0.62;0.62;;;;;;;;;;1868570;75;26541;-54
2022/12/10 06:52:34;;;;;;;2.42;0.70;;;;;;;;;;1872646;75;26257;-42
2022/12/10 06:55:01;;;;;;;0.70;0.70;;;;;;;;;;1872773;75;26281;-41
2022/12/10 06:57:28;;;;;;;0.70;0.70;;;;;;;;;;1873671;75;26171;-39
2022/12/10 06:59:55;;;;;;;1.07;0.60;;;;;;;;;;1873156;75;26206;-45
2022/12/10 07:02:23;;;;;;;0.62;0.62;;;;;;;;;;1871697;75;26174;-42
2022/12/10 07:04:50;;;;;;;1.77;0.60;;;;;;;;;;1873177;75;26207;-44
2022/12/10 07:07:17;;;;;;;0.98;0.70;;;;;;;;;;1874727;75;26201;-43
2022/12/10 07:09:44;;;;;;;2.10;0.60;;;;;;;;;;1872445;75;26866;-43
2022/12/10 07:12:12;;;;;;;0.85;0.80;;;;;;;;;;1872390;75;26669;-43
2022/12/10 07:14:39;;;;;;;0.60;0.60;;;;;;;;;;1872407;75;26679;-45
2022/12/10 07:17:06;;;;;;;2.83;0.70;;;;;;;;;;1871912;75;27114;-61
2022/12/10 07:19:33;;;;;;;0.60;0.60;;;;;;;;;;1871780;75;26261;-41
2022/12/10 07:22:01;;;;;;;0.60;0.60;;;;;;;;;;1867660;75;26265;-50
2022/12/10 07:24:28;;;;;;;1.40;0.65;;;;;;;;;;1858900;75;26286;-45
2022/12/10 07:26:55;;;;;;;0.70;0.70;;;;;;;;;;1864984;75;26210;-45
2022/12/10 07:29:23;;;;;;;11.70;4.62;;;;;;;;;;1862746;75;26163;-40
2022/12/10 07:31:50;;;;;;;9.50;4.78;;;;;;;;;;1863702;75;26901;-44
2022/12/10 07:34:17;;;;;;;12.15;5.90;;;;;;;;;;1867196;75;26201;-39
2022/12/10 07:36:45;;;;;;;18.50;7.17;;;;;;;;;;1863701;75;26364;-48
2022/12/10 07:39:17;;;;;;;21.25;7.87;;;;;;;;;;1863957;76;26206;-48
2022/12/10 07:41:42;;;;;;;32.40;11.88;;;;;;;;;;1867509;76;26231;-42
2022/12/10 07:44:11;;;;;;;33.90;12.00;;;;;;;;;;1865444;76;26669;-53
2022/12/10 07:46:38;;;;;;;33.15;12.25;;;;;;;;;;1864825;76;26695;-44
2022/12/10 07:49:06;;;;;;;32.23;11.83;;;;;;;;;;1858536;76;26139;-44
2022/12/10 07:51:33;;;;;;;29.12;12.00;;;;;;;;;;1863799;76;26314;-40
2022/12/10 07:54:01;;;;;;;31.05;10.93;;;;;;;;;;1866162;76;26581;-48
2022/12/10 07:56:28;;;;;;;29.98;10.58;;;;;;;;;;1867228;76;26163;-58
2022/12/10 07:58:55;;;;;;;26.85;10.55;;;;;;;;;;1865377;76;26135;-38
2022/12/10 08:01:24;;;;;;;28.23;10.58;;;;;;;;;;1866018;76;26143;-40
2022/12/10 08:03:52;;;;;;;26.40;9.55;;;;;;;;;;1864052;76;26516;-56
2022/12/10 08:06:21;;;;;;;24.05;9.38;;;;;;;;;;1869309;75;26160;-40
2022/12/10 08:08:48;;;;;;;21.57;9.13;;;;;;;;;;1867649;76;26160;-43
2022/12/10 08:11:16;;;;;;;23.40;8.98;;;;;;;;;;1864452;76;26222;-41
2022/12/10 08:13:45;;;;;;;22.67;8.60;;;;;;;;;;1863847;76;26222;-47
2022/12/10 08:16:13;;;;;;;21.30;7.85;;;;;;;;;;1864188;76;26608;-49
2022/12/10 08:18:41;;;;;;;20.90;7.78;;;;;;;;;;1867739;76;26245;-40
2022/12/10 08:21:11;;;;;;;18.67;7.92;;;;;;;;;;1862398;76;26172;-43
2022/12/10 08:23:38;;;;;;;19.40;7.03;;;;;;;;;;1874189;76;26719;-47
2022/12/10 08:26:06;;;;;;;17.25;6.35;;;;;;;;;;1873264;76;26579;-50
2022/12/10 08:28:33;;;;;;;14.20;6.00;;;;;;;;;;1874558;76;26613;-43
2022/12/10 08:31:01;;;;;;;14.20;5.60;;;;;;;;;;1874827;76;26808;-43
2022/12/10 08:33:28;;;;;;;12.20;5.40;;;;;;;;;;1872609;76;26163;-48
2022/12/10 08:36:00;;;;;;;11.90;5.22;;;;;;;;;;1867809;76;26229;-51
2022/12/10 08:38:27;;;;;;;12.40;5.47;;;;;;;;;;1870929;76;26750;-40
2022/12/10 08:40:54;;;;;;;10.72;5.30;;;;;;;;;;1874067;76;26647;-44
2022/12/10 08:43:22;;;;;;;15.08;4.95;;;;;;;;;;1875064;76;26205;-41
2022/12/10 08:45:49;;;;;;;8.10;4.12;;;;;;;;;;1873676;76;26143;-47
2022/12/10 08:48:16;;;;;;;10.30;4.03;;;;;;;;;;1871167;76;26300;-49
2022/12/10 08:50:43;;;;;;;8.35;3.80;;;;;;;;;;1882630;75;26157;-38
2022/12/10 08:53:11;;;;;;;8.55;4.03;;;;;;;;;;1876130;75;26166;-46
2022/12/10 08:55:39;;;;;;;6.78;3.52;;;;;;;;;;1863804;76;26187;-51
2022/12/10 08:58:07;;;;;;;8.38;3.30;;;;;;;;;;1872366;76;26260;-44
2022/12/10 09:00:35;;;;;;;5.80;3.12;;;;;;;;;;1868995;76;26206;-41
2022/12/10 09:03:02;;;;;;;6.37;3.80;;;;;;;;;;1868087;76;26232;-44
2022/12/10 09:05:29;;;;;;;5.67;2.77;;;;;;;;;;1873396;76;26212;-39
2022/12/10 09:07:57;;;;;;;5.12;2.65;;;;;;;;;;1879606;75;26689;-48
2022/12/10 09:10:24;;;;;;;5.53;2.95;;;;;;;;;;1873875;76;26227;-41
2022/12/10 09:12:51;;;;;;;4.28;2.50;;;;;;;;;;1873948;76;26253;-52
2022/12/10 09:15:18;;;;;;;4.10;2.58;;;;;;;;;;1873827;76;26221;-45
2022/12/10 09:17:46;;;;;;;3.08;2.33;;;;;;;;;;1873729;76;26679;-42
2022/12/10 09:20:13;;;;;;;2.22;2.10;;;;;;;;;;1875317;76;26608;-41
2022/12/10 09:22:40;;;;;;;4.30;2.20;;;;;;;;;;1869977;76;26269;-46
2022/12/10 09:25:15;;;;;;;2.50;2.05;;;;;;;;;;1865485;77;26204;-53
2022/12/10 09:27:37;;;;;;;2.22;1.92;;;;;;;;;;1863847;76;26251;-46
2022/12/10 09:30:05;;;;;;;2.47;1.65;;;;;;;;;;1865765;77;26199;-44
2022/12/10 09:32:33;;;;;;;1.80;1.70;;;;;;;;;;1865883;77;26751;-42
2022/12/10 09:35:00;;;;;;;2.52;1.90;;;;;;;;;;1858852;77;26686;-44
2022/12/10 09:37:27;;;;;;;2.17;1.60;;;;;;;;;;1859648;77;26209;-38
2022/12/10 09:39:54;;;;;;;1.60;1.50;;;;;;;;;;1865252;77;26215;-38
2022/12/10 09:42:35;;;;;;;1.70;1.40;;;;;;;;;;1865981;77;26205;-39
2022/12/10 09:45:22;;;;;;;1.42;1.32;;;;;;;;;;1799103;76;26676;-45
2022/12/10 09:47:57;;;;;;;1.30;1.30;;;;;;;;;;1863204;77;26641;-40
2022/12/10 09:50:25;;;;;;;1.32;1.22;;;;;;;;;;1865492;76;27000;-45
2022/12/10 09:52:54;;;;;;;1.50;1.40;;;;;;;;;;1849581;76;26678;-38
2022/12/10 09:55:23;;;;;;;1.75;1.40;;;;;;;;;;1863108;77;26222;-41
2022/12/10 09:57:51;;;;;;;1.20;1.20;;;;;;;;;;1857801;76;26191;-51
2022/12/10 10:00:20;;;;;;;1.82;1.20;;;;;;;;;;1862934;77;26693;-39
2022/12/10 10:02:48;;;;;;;1.30;1.30;;;;;;;;;;1862916;77;26197;-38
2022/12/10 10:05:25;;;;;;;1.30;1.20;;;;;;;;;;1863647;77;26620;-38
2022/12/10 10:07:57;;;;;;;1.25;1.15;;;;;;;;;;1865036;77;26649;-43
2022/12/10 10:10:28;;;;;;;1.07;1.00;;;;;;;;;;1859190;77;26179;-49
2022/12/10 10:12:57;;;;;;;1.20;1.00;;;;;;;;;;1854366;77;26190;-38
2022/12/10 10:15:26;;;;;;;1.00;1.00;;;;;;;;;;1865325;76;26224;-42
2022/12/10 10:17:55;;;;;;;1.10;1.10;;;;;;;;;;1867634;75;26213;-38
2022/12/10 10:20:22;;;;;;;1.00;1.00;;;;;;;;;;1864228;77;26764;-51
2022/12/10 10:22:49;;;;;;;1.00;1.00;;;;;;;;;;1866930;76;26290;-40
2022/12/10 10:25:18;;;;;;;0.80;0.80;;;;;;;;;;1874837;76;26166;-42
2022/12/10 10:27:46;;;;;;;0.95;0.95;;;;;;;;;;1875278;76;26730;-56
2022/12/10 10:30:20;;;;;;;0.90;0.90;;;;;;;;;;1864979;76;26230;-50
2022/12/10 10:32:52;;;;;;;0.90;0.90;;;;;;;;;;1860428;76;26725;-38
2022/12/10 10:35:33;;;;;;;0.90;0.90;;;;;;;;;;1875535;76;26627;-44
2022/12/10 10:38:01;;;;;;;0.90;0.90;;;;;;;;;;1875333;75;26167;-54
2022/12/10 10:40:30;;;;;;;0.80;0.80;;;;;;;;;;1875568;76;26221;-45
2022/12/10 10:42:58;;;;;;;0.72;0.72;;;;;;;;;;1873208;76;26239;-49
2022/12/10 10:45:36;;;;;;;0.82;0.82;;;;;;;;;;1875405;76;26159;-38
2022/12/10 10:48:05;;;;;;;0.95;0.95;;;;;;;;;;1853902;76;26669;-45
2022/12/10 10:50:33;;;;;;;0.95;0.95;;;;;;;;;;1873346;76;26598;-40
2022/12/10 10:53:01;;;;;;;0.72;0.72;;;;;;;;;;1891379;75;26593;-41
2022/12/10 10:55:35;;;;;;;0.80;0.80;;;;;;;;;;1871387;76;26800;-48
2022/12/10 10:58:01;;;;;;;0.80;0.80;;;;;;;;;;1874789;76;26245;-45
2022/12/10 11:00:28;;;;;;;0.82;0.65;;;;;;;;;;1875249;76;26547;-45
2022/12/10 11:02:55;;;;;;;0.72;0.72;;;;;;;;;;1873194;76;26151;-42
2022/12/10 11:05:25;;;;;;;0.80;0.80;;;;;;;;;;1874304;76;26236;-45
2022/12/10 11:08:00;;;;;;;0.78;0.78;;;;;;;;;;1867199;76;26163;-42
2022/12/10 11:10:28;;;;;;;0.82;0.82;;;;;;;;;;1873345;76;26224;-43
2022/12/10 11:13:01;;;;;;;0.78;0.78;;;;;;;;;;1870331;76;26166;-41
2022/12/10 11:15:33;;;;;;;0.80;0.80;;;;;;;;;;1873326;76;26179;-49
2022/12/10 11:18:01;;;;;;;0.80;0.80;;;;;;;;;;1875761;75;26276;-43
2022/12/10 11:20:32;;;;;;;0.70;0.70;;;;;;;;;;1864104;76;26634;-42
2022/12/10 11:23:01;;;;;;;0.70;0.70;;;;;;;;;;1867983;76;26139;-38
2022/12/10 11:25:30;;;;;;;0.75;0.75;;;;;;;;;;1858325;77;26229;-41
2022/12/10 11:28:08;;;;;;;0.68;0.68;;;;;;;;;;1859499;77;26204;-38
2022/12/10 11:30:37;;;;;;;0.68;0.68;;;;;;;;;;1852666;77;26665;-49
2022/12/10 11:33:14;;;;;;;0.70;0.70;;;;;;;;;;1855594;77;26285;-46
2022/12/10 11:35:46;;;;;;;0.80;0.80;;;;;;;;;;1853924;77;26196;-41
2022/12/10 11:38:26;;;;;;;0.70;0.70;;;;;;;;;;1857027;77;26501;-45
2022/12/10 11:41:13;;;;;;;0.85;0.85;;;;;;;;;;1813245;77;26168;-49
2022/12/10 11:43:44;;;;;;;0.60;0.60;;;;;;;;;;1849392;77;26215;-42
2022/12/10 11:46:13;;;;;;;0.80;0.80;;;;;;;;;;1856772;77;26237;-43
2022/12/10 11:48:42;;;;;;;0.70;0.70;;;;;;;;;;1850932;77;26217;-38
2022/12/10 11:51:11;;;;;;;0.70;0.70;;;;;;;;;;1843926;76;26234;-56
2022/12/10 11:53:54;;;;;;;0.72;0.72;;;;;;;;;;1852356;77;26246;-39
2022/12/10 11:56:32;;;;;;;0.75;0.75;;;;;;;;;;1857633;77;26321;-41
2022/12/10 11:59:01;;;;;;;0.70;0.70;;;;;;;;;;1842755;77;26619;-41
2022/12/10 12:01:48;;;;;;;1.10;0.70;;;;;;;;;;1854285;77;26156;-40
2022/12/10 12:04:17;;;;;;;0.80;0.80;;;;;;;;;;1858064;77;26170;-37
2022/12/10 12:07:01;;;;;;;0.70;0.70;;;;;;;;;;1859729;77;26229;-38
2022/12/10 12:09:29;;;;;;;0.68;0.68;;;;;;;;;;1855058;77;26156;-47
2022/12/10 12:12:10;;;;;;;0.70;0.70;;;;;;;;;;1844202;77;26163;-41
2022/12/10 12:14:41;;;;;;;0.65;0.65;;;;;;;;;;1859684;77;26282;-43
2022/12/10 12:17:13;;;;;;;0.80;0.80;;;;;;;;;;1843837;77;27009;-50
2022/12/10 12:19:42;;;;;;;0.80;0.80;;;;;;;;;;1859542;77;26204;-42
2022/12/10 12:22:16;;;;;;;0.82;0.82;;;;;;;;;;1859330;77;26152;-42
2022/12/10 12:24:46;;;;;;;0.60;0.60;;;;;;;;;;1855148;77;26371;-40
2022/12/10 12:27:18;;;;;;;0.78;0.78;;;;;;;;;;1868575;76;26144;-47
2022/12/10 12:29:50;;;;;;;0.70;0.70;;;;;;;;;;1867839;75;25704;-42
2022/12/10 12:32:22;;;;;;;0.65;0.65;;;;;;;;;;1861958;76;26202;-40
2022/12/10 12:34:54;;;;;;;0.60;0.60;;;;;;;;;;1860558;77;26194;-39
2022/12/10 12:37:22;;;;;;;0.80;0.80;;;;;;;;;;1860281;77;26634;-40
2022/12/10 12:39:54;;;;;;;0.60;0.60;;;;;;;;;;1868483;76;26164;-45
2022/12/10 12:42:32;;;;;;;0.80;0.80;;;;;;;;;;1862854;76;25672;-48
2022/12/10 12:45:02;;;;;;;0.70;0.70;;;;;;;;;;1867505;76;26172;-41
2022/12/10 12:47:31;;;;;;;0.70;0.70;;;;;;;;;;1868517;76;26155;-38
2022/12/10 12:49:59;;;;;;;0.70;0.70;;;;;;;;;;1868319;77;26249;-41
2022/12/10 12:52:33;;;;;;;0.70;0.70;;;;;;;;;;1879394;75;26702;-38
2022/12/10 12:55:01;;;;;;;0.80;0.80;;;;;;;;;;1865398;77;26151;-39
2022/12/10 12:57:39;;;;;;;0.60;0.60;;;;;;;;;;1859432;76;26640;-40
2022/12/10 13:00:08;;;;;;;0.60;0.60;;;;;;;;;;1856576;77;26542;-43
2022/12/10 13:02:36;;;;;;;0.80;0.80;;;;;;;;;;1863209;76;26667;-47
2022/12/10 13:05:04;;;;;;;0.70;0.70;;;;;;;;;;1866767;76;26296;-47
2022/12/10 13:07:33;;;;;;;0.65;0.65;;;;;;;;;;1859503;76;26330;-42
2022/12/10 13:10:07;;;;;;;0.70;0.70;;;;;;;;;;1867988;77;26160;-37
2022/12/10 13:12:36;;;;;;;0.80;0.80;;;;;;;;;;1864923;77;26221;-43
2022/12/10 13:15:05;;;;;;;0.70;0.70;;;;;;;;;;1860986;77;26222;-38
2022/12/10 13:17:34;;;;;;;0.60;0.60;;;;;;;;;;1863263;77;26248;-46
2022/12/10 13:20:19;;;;;;;0.70;0.70;;;;;;;;;;1864680;75;26585;-41
2022/12/10 13:22:48;;;;;;;0.70;0.70;;;;;;;;;;1868693;77;26198;-45
2022/12/10 13:25:18;;;;;;;0.60;0.60;;;;;;;;;;1867427;76;26233;-54
2022/12/10 13:27:56;;;;;;;0.60;0.60;;;;;;;;;;1868662;76;26581;-48
2022/12/10 13:30:27;;;;;;;0.65;0.65;;;;;;;;;;1855608;76;26132;-42
2022/12/10 13:32:56;;;;;;;0.62;0.62;;;;;;;;;;1862560;77;26290;-37
2022/12/10 13:35:25;;;;;;;0.65;0.65;;;;;;;;;;1861267;77;26548;-37
2022/12/10 13:37:54;;;;;;;0.70;0.70;;;;;;;;;;1867326;76;26190;-44
2022/12/10 13:45:46;;;;;;;0.62;0.62;;;;;;;;;;1864366;77;26541;-44
2022/12/10 13:48:18;;;;;;;0.70;0.70;;;;;;;;;;1864223;77;26677;-45
2022/12/10 13:50:59;;;;;;;0.70;0.70;;;;;;;;;;1866211;77;26151;-40
2022/12/10 13:53:30;;;;;;;0.60;0.60;;;;;;;;;;1863156;76;26678;-59
2022/12/10 13:56:02;;;;;;;0.60;0.60;;;;;;;;;;1862645;77;26623;-37
2022/12/10 13:58:39;;;;;;;0.62;0.62;;;;;;;;;;1856619;77;26835;-42
2022/12/10 14:01:14;;;;;;;0.60;0.60;;;;;;;;;;1861484;77;26221;-54
2022/12/10 14:03:49;;;;;;;0.62;0.62;;;;;;;;;;1859303;77;26256;-38
2022/12/10 14:06:18;;;;;;;0.60;0.60;;;;;;;;;;1859736;75;26195;-38
2022/12/10 14:08:46;;;;;;;0.70;0.70;;;;;;;;;;1866065;76;26174;-45
2022/12/10 14:11:15;;;;;;;0.60;0.60;;;;;;;;;;1850043;77;26214;-37
2022/12/10 14:13:44;;;;;;;0.72;0.72;;;;;;;;;;1867504;75;26140;-37
2022/12/10 14:16:13;;;;;;;0.60;0.60;;;;;;;;;;1863198;77;26155;-44
2022/12/10 14:18:42;;;;;;;0.60;0.60;;;;;;;;;;1866548;75;26155;-38
2022/12/10 14:21:11;;;;;;;0.60;0.60;;;;;;;;;;1868257;77;26213;-47
2022/12/10 14:23:41;;;;;;;0.60;0.60;;;;;;;;;;1868289;77;26525;-43
2022/12/10 14:26:15;;;;;;;0.70;0.70;;;;;;;;;;1874168;76;26975;-38
2022/12/10 14:28:47;;;;;;;0.60;0.60;;;;;;;;;;1873135;76;26204;-44
2022/12/10 14:31:16;;;;;;;0.70;0.70;;;;;;;;;;1872905;76;26294;-47
2022/12/10 14:33:45;;;;;;;0.70;0.70;;;;;;;;;;1871775;76;26252;-41
2022/12/10 14:36:14;;;;;;;0.60;0.60;;;;;;;;;;1873130;75;26132;-45
2022/12/10 14:38:41;;;;;;;0.60;0.60;;;;;;;;;;1875142;76;26182;-37
2022/12/10 14:41:10;;;;;;;0.80;0.80;;;;;;;;;;1874433;76;26233;-41
2022/12/10 14:43:38;;;;;;;0.60;0.60;;;;;;;;;;1872320;76;26179;-40
2022/12/10 14:46:06;;;;;;;0.55;0.55;;;;;;;;;;1875580;76;26175;-41
2022/12/10 14:48:35;;;;;;;0.62;0.62;;;;;;;;;;1871877;76;26608;-41
2022/12/10 14:51:06;;;;;;;0.60;0.60;;;;;;;;;;1797743;79;26630;-41
2022/12/10 14:53:34;;;;;;;0.95;0.70;;;;;;;;;;1830892;78;26399;-35
2022/12/10 14:56:02;;;;;;;1.20;0.68;;;;;;;;;;1828431;78;26289;-36
2022/12/10 14:58:31;;;;;;;0.72;0.72;;;;;;;;;;1833262;77;26652;-36
2022/12/10 15:00:59;;;;;;;1.90;0.80;;;;;;;;;;1832076;78;26213;-46
2022/12/10 15:03:33;;;;;;;1.37;0.70;;;;;;;;;;1834749;77;26579;-37
2022/12/10 15:06:02;;;;;;;1.52;0.80;;;;;;;;;;1828076;78;26287;-42